Time;durP1;ratioP1;P1;durP2;ratioP2;P2;SDS_P1;SDS_P2;PMS_P1;PMS_P2;Temp;Humidity;BMP_temperature;BMP_pressure;BME280_temperature;BME280_humidity;BME280_pressure;Samples;Min_cycle;Max_cycle;Signal;HPM_P1;HPM_P2
2023/04/06 00:01:34;;;;;;;;;;;;;;;;;;4921834;29;19930;-92
2023/04/06 00:04:00;;;;;;;;;;;;;;;;;;4922319;29;19922;-92
2023/04/06 00:06:26;;;;;;;;;;;;;;;;;;4938135;29;19927;-91
2023/04/06 00:08:52;;;;;;;;;;;;;;;;;;4922161;29;19926;-92
2023/04/06 00:11:18;;;;;;;;;;;;;;;;;;4922191;29;20346;-91
2023/04/06 00:13:44;;;;;;;;;;;;;;;;;;4921367;29;20290;-91
2023/04/06 00:16:10;;;;;;;;;;;;;;;;;;4922277;29;20349;-92
2023/04/06 00:18:36;;;;;;;;;;;;;;;;;;4922328;29;19945;-93
2023/04/06 00:21:02;;;;;;;;;;;;;;;;;;4922085;29;19972;-93
2023/04/06 00:23:28;;;;;;;;;;;;;;;;;;4922272;29;19922;-92
2023/04/06 00:25:55;;;;;;;;;;;;;;;;;;4922103;29;19929;-92
2023/04/06 00:28:25;;;;;;;;;;;;;;;;;;4922574;29;19926;-92
2023/04/06 00:30:52;;;;;;;;;;;;;;;;;;4923032;29;20326;-91
2023/04/06 00:33:18;;;;;;;;;;;;;;;;;;4922795;29;19969;-92
2023/04/06 00:35:44;;;;;;;;;;;;;;;;;;4923056;29;20013;-92
2023/04/06 00:38:10;;;;;;;;;;;;;;;;;;4922603;29;19929;-91
2023/04/06 00:40:36;;;;;;;;;;;;;;;;;;4922074;29;19926;-92
2023/04/06 00:43:02;;;;;;;;;;;;;;;;;;4922402;29;19945;-92
2023/04/06 00:45:28;;;;;;;;;;;;;;;;;;4922070;29;19922;-92
2023/04/06 00:47:54;;;;;;;;;;;;;;;;;;4921989;29;20174;-91
2023/04/06 00:50:20;;;;;;;;;;;;;;;;;;4921900;29;20280;-92
2023/04/06 00:52:46;;;;;;;;;;;;;;;;;;4921389;29;19922;-92
2023/04/06 00:55:12;;;;;;;;;;;;;;;;;;4921414;29;19946;-91
2023/04/06 00:57:38;;;;;;;;;;;;;;;;;;4922587;29;19928;-91
2023/04/06 01:00:05;;;;;;;;;;;;;;;;;;4922243;29;19923;-92
2023/04/06 01:02:31;;;;;;;;;;;;;;;;;;4921520;29;19957;-92
2023/04/06 01:04:57;;;;;;;;;;;;;;;;;;4937056;28;19922;-92
2023/04/06 01:07:24;;;;;;;;;;;;;;;;;;4921811;29;19922;-92
2023/04/06 01:09:50;;;;;;;;;;;;;;;;;;4921507;29;19923;-92
2023/04/06 01:12:17;;;;;;;;;;;;;;;;;;4922023;29;20358;-91
2023/04/06 01:14:43;;;;;;;;;;;;;;;;;;4925897;29;20021;-93
2023/04/06 01:17:09;;;;;;;;;;;;;;;;;;4925592;29;19969;-92
2023/04/06 01:19:35;;;;;;;;;;;;;;;;;;4925322;29;20342;-91
2023/04/06 01:22:01;;;;;;;;;;;;;;;;;;4925655;29;19933;-92
2023/04/06 01:24:27;;;;;;;;;;;;;;;;;;4925805;29;19922;-92
2023/04/06 01:26:53;;;;;;;;;;;;;;;;;;4926031;29;19911;-92
2023/04/06 01:29:19;;;;;;;;;;;;;;;;;;4925667;29;19926;-91
2023/04/06 01:31:45;;;;;;;;;;;;;;;;;;4925583;29;19969;-92
2023/04/06 01:34:11;;;;;;;;;;;;;;;;;;4940618;29;19926;-92
2023/04/06 01:36:37;;;;;;;;;;;;;;;;;;4941458;29;19930;-92
2023/04/06 01:39:03;;;;;;;;;;;;;;;;;;4925341;29;19989;-92
2023/04/06 01:41:29;;;;;;;;;;;;;;;;;;4924463;29;20036;-92
2023/04/06 01:43:55;;;;;;;;;;;;;;;;;;4925518;29;19922;-91
2023/04/06 01:46:21;;;;;;;;;;;;;;;;;;4925052;29;20400;-90
2023/04/06 01:48:47;;;;;;;;;;;;;;;;;;4925567;29;20021;-92
2023/04/06 01:51:13;;;;;;;;;;;;;;;;;;4925124;29;19930;-93
2023/04/06 01:53:39;;;;;;;;;;;;;;;;;;4925026;29;19923;-92
2023/04/06 01:56:05;;;;;;;;;;;;;;;;;;4925211;29;19922;-92
2023/04/06 01:58:31;;;;;;;;;;;;;;;;;;4924901;29;19929;-92
2023/04/06 02:00:57;;;;;;;;;;;;;;;;;;4924915;29;20278;-93
2023/04/06 02:03:24;;;;;;;;;;;;;;;;;;4924619;29;19944;-92
2023/04/06 02:05:50;;;;;;;;;;;;;;;;;;4925131;29;19917;-92
2023/04/06 02:08:16;;;;;;;;;;;;;;;;;;4925424;29;19927;-92
2023/04/06 02:10:42;;;;;;;;;;;;;;;;;;4924724;29;19977;-93
2023/04/06 02:13:08;;;;;;;;;;;;;;;;;;4924879;29;20374;-92
2023/04/06 02:15:34;;;;;;;;;;;;;;;;;;4925173;29;19926;-92
2023/04/06 02:18:00;;;;;;;;;;;;;;;;;;4924933;29;19929;-93
2023/04/06 02:20:26;;;;;;;;;;;;;;;;;;4924858;29;19960;-92
2023/04/06 02:22:52;;;;;;;;;;;;;;;;;;4924689;28;19927;-90
2023/04/06 02:25:18;;;;;;;;;;;;;;;;;;4924485;29;19932;-92
2023/04/06 02:27:44;;;;;;;;;;;;;;;;;;4924008;29;20302;-91
2023/04/06 02:30:10;;;;;;;;;;;;;;;;;;4924385;29;20280;-91
2023/04/06 02:32:36;;;;;;;;;;;;;;;;;;4923737;29;19929;-92
2023/04/06 02:35:02;;;;;;;;;;;;;;;;;;4924018;28;19933;-92
2023/04/06 02:37:27;;;;;;;;;;;;;;;;;;4924381;29;19972;-91
2023/04/06 02:39:53;;;;;;;;;;;;;;;;;;4940007;29;20002;-92
2023/04/06 02:42:19;;;;;;;;;;;;;;;;;;4924508;29;19922;-92
2023/04/06 02:44:45;;;;;;;;;;;;;;;;;;4924250;29;19991;-92
2023/04/06 02:47:11;;;;;;;;;;;;;;;;;;4923384;29;20028;-92
2023/04/06 02:49:37;;;;;;;;;;;;;;;;;;4923831;29;19927;-92
2023/04/06 02:52:03;;;;;;;;;;;;;;;;;;4923558;29;19929;-92
2023/04/06 02:54:29;;;;;;;;;;;;;;;;;;4923220;29;20020;-92
2023/04/06 02:56:55;;;;;;;;;;;;;;;;;;4923311;29;19933;-92
2023/04/06 02:59:21;;;;;;;;;;;;;;;;;;4924058;29;19931;-92
2023/04/06 03:01:47;;;;;;;;;;;;;;;;;;4923366;29;19949;-92
2023/04/06 03:04:16;;;;;;;;;;;;;;;;;;4939693;29;20005;-93
2023/04/06 03:06:45;;;;;;;;;;;;;;;;;;4939754;29;19929;-93
2023/04/06 03:09:11;;;;;;;;;;;;;;;;;;4924269;29;19934;-93
2023/04/06 03:11:37;;;;;;;;;;;;;;;;;;4924087;29;19926;-93
2023/04/06 03:14:03;;;;;;;;;;;;;;;;;;4924029;29;19974;-93
2023/04/06 03:16:29;;;;;;;;;;;;;;;;;;4923961;29;19930;-92
2023/04/06 03:18:55;;;;;;;;;;;;;;;;;;4923938;29;19922;-91
2023/04/06 03:21:21;;;;;;;;;;;;;;;;;;4923904;29;20277;-93
2023/04/06 03:23:49;;;;;;;;;;;;;;;;;;4923969;29;19922;-91
2023/04/06 03:26:15;;;;;;;;;;;;;;;;;;4924087;29;19973;-92
2023/04/06 03:28:41;;;;;;;;;;;;;;;;;;4923815;29;20413;-92
2023/04/06 03:31:07;;;;;;;;;;;;;;;;;;4922763;29;19922;-92
2023/04/06 03:33:33;;;;;;;;;;;;;;;;;;4923426;29;19929;-92
2023/04/06 03:35:59;;;;;;;;;;;;;;;;;;4922573;29;19922;-92
2023/04/06 03:38:25;;;;;;;;;;;;;;;;;;4923022;29;19923;-91
2023/04/06 03:40:51;;;;;;;;;;;;;;;;;;4923189;29;19934;-93
2023/04/06 03:43:17;;;;;;;;;;;;;;;;;;4923705;29;19922;-92
2023/04/06 03:45:43;;;;;;;;;;;;;;;;;;4923404;29;20286;-92
2023/04/06 03:48:09;;;;;;;;;;;;;;;;;;4923096;29;20286;-92
2023/04/06 03:50:34;;;;;;;;;;;;;;;;;;4923096;29;19922;-93
2023/04/06 03:53:02;;;;;;;;;;;;;;;;;;4922936;29;20326;-92
2023/04/06 03:55:28;;;;;;;;;;;;;;;;;;4922590;29;19950;-93
2023/04/06 03:58:00;;;;;;;;;;;;;;;;;;4922916;29;20349;-92
2023/04/06 04:00:26;;;;;;;;;;;;;;;;;;4939691;29;19932;-92
2023/04/06 04:02:52;;;;;;;;;;;;;;;;;;4923646;29;20009;-92
2023/04/06 04:05:18;;;;;;;;;;;;;;;;;;4923586;29;19927;-92
2023/04/06 04:07:44;;;;;;;;;;;;;;;;;;4923278;29;19927;-93
2023/04/06 04:10:10;;;;;;;;;;;;;;;;;;4923412;29;19976;-93
2023/04/06 04:12:36;;;;;;;;;;;;;;;;;;4922469;29;20013;-92
2023/04/06 04:15:02;;;;;;;;;;;;;;;;;;4922878;28;19922;-92
2023/04/06 04:17:28;;;;;;;;;;;;;;;;;;4922415;29;19922;-93
2023/04/06 04:19:57;;;;;;;;;;;;;;;;;;4938861;29;20041;-93
2023/04/06 04:22:23;;;;;;;;;;;;;;;;;;4922456;29;20066;-91
2023/04/06 04:24:49;;;;;;;;;;;;;;;;;;4921962;28;19974;-91
2023/04/06 04:27:15;;;;;;;;;;;;;;;;;;4922304;29;20006;-92
2023/04/06 04:29:43;;;;;;;;;;;;;;;;;;4922306;29;19931;-92
2023/04/06 04:32:09;;;;;;;;;;;;;;;;;;4922071;29;20425;-90
2023/04/06 04:34:35;;;;;;;;;;;;;;;;;;4922288;29;19929;-92
2023/04/06 04:37:01;;;;;;;;;;;;;;;;;;4922322;29;19927;-91
2023/04/06 04:39:27;;;;;;;;;;;;;;;;;;4922813;29;19923;-91
2023/04/06 04:41:53;;;;;;;;;;;;;;;;;;4922290;29;19926;-91
2023/04/06 04:44:19;;;;;;;;;;;;;;;;;;4922014;29;20463;-90
2023/04/06 04:46:45;;;;;;;;;;;;;;;;;;4923005;29;19922;-91
2023/04/06 04:49:11;;;;;;;;;;;;;;;;;;4925370;29;20034;-91
2023/04/06 04:51:37;;;;;;;;;;;;;;;;;;4924831;29;19926;-91
2023/04/06 04:54:03;;;;;;;;;;;;;;;;;;4926170;29;20278;-91
2023/04/06 04:56:29;;;;;;;;;;;;;;;;;;4925451;29;19973;-91
2023/04/06 04:58:55;;;;;;;;;;;;;;;;;;4925332;29;19965;-92
2023/04/06 05:01:21;;;;;;;;;;;;;;;;;;4925236;29;19923;-91
2023/04/06 05:03:47;;;;;;;;;;;;;;;;;;4925624;29;19923;-89
2023/04/06 05:06:13;;;;;;;;;;;;;;;;;;4925310;29;19922;-89
2023/04/06 05:08:39;;;;;;;;;;;;;;;;;;4925341;29;19927;-90
2023/04/06 05:11:05;;;;;;;;;;;;;;;;;;4941376;29;19977;-90
2023/04/06 05:13:31;;;;;;;;;;;;;;;;;;4941078;29;19929;-90
2023/04/06 05:15:57;;;;;;;;;;;;;;;;;;4926181;29;20030;-90
2023/04/06 05:18:24;;;;;;;;;;;;;;;;;;4925174;29;20005;-91
2023/04/06 05:20:51;;;;;;;;;;;;;;;;;;4925109;29;19922;-89
2023/04/06 05:23:17;;;;;;;;;;;;;;;;;;4924995;29;19922;-89
2023/04/06 05:25:49;;;;;;;;;;;;;;;;;;4925808;29;19929;-94
2023/04/06 05:28:15;;;;;;;;;;;;;;;;;;4942512;29;19934;-95
2023/04/06 05:30:41;;;;;;;;;;;;;;;;;;4926623;29;19993;-94
2023/04/06 05:33:07;;;;;;;;;;;;;;;;;;4925942;29;20370;-96
2023/04/06 05:35:33;;;;;;;;;;;;;;;;;;4926550;29;20318;-94
2023/04/06 05:38:00;;;;;;;;;;;;;;;;;;4926004;29;19922;-94
2023/04/06 05:40:26;;;;;;;;;;;;;;;;;;4926403;29;19937;-93
2023/04/06 05:42:52;;;;;;;;;;;;;;;;;;4925936;29;19927;-94
2023/04/06 05:45:18;;;;;;;;;;;;;;;;;;4925784;29;19933;-94
2023/04/06 05:47:44;;;;;;;;;;;;;;;;;;4926048;29;20022;-94
2023/04/06 05:50:10;;;;;;;;;;;;;;;;;;4925730;29;19970;-94
2023/04/06 05:52:36;;;;;;;;;;;;;;;;;;4925707;29;19923;-93
2023/04/06 05:55:02;;;;;;;;;;;;;;;;;;4925972;28;20012;-94
2023/04/06 05:57:30;;;;;;;;;;;;;;;;;;4926048;29;19922;-95
2023/04/06 05:59:56;;;;;;;;;;;;;;;;;;4926017;29;19930;-95
2023/04/06 06:02:23;;;;;;;;;;;;;;;;;;4925933;29;19926;-92
2023/04/06 06:04:49;;;;;;;;;;;;;;;;;;4925770;28;19985;-93
2023/04/06 06:07:15;;;;;;;;;;;;;;;;;;4925741;29;19923;-92
2023/04/06 06:09:41;;;;;;;;;;;;;;;;;;4925186;29;19981;-93
2023/04/06 06:12:07;;;;;;;;;;;;;;;;;;4923638;29;19922;-90
2023/04/06 06:14:34;;;;;;;;;;;;;;;;;;4924487;29;19977;-93
2023/04/06 06:17:05;;;;;;;;;;;;;;;;;;4940656;29;20438;-93
2023/04/06 06:19:31;;;;;;;;;;;;;;;;;;4924898;29;19926;-95
2023/04/06 06:21:58;;;;;;;;;;;;;;;;;;4925286;29;19923;-93
2023/04/06 06:24:25;;;;;;;;;;;;;;;;;;4924972;29;19961;-93
2023/04/06 06:26:51;;;;;;;;;;;;;;;;;;4925079;29;19922;-92
2023/04/06 06:29:17;;;;;;;;;;;;;;;;;;4925192;29;19926;-93
2023/04/06 06:31:43;;;;;;;;;;;;;;;;;;4926182;29;20013;-94
2023/04/06 06:34:10;;;;;;;;;;;;;;;;;;4926749;29;19922;-92
2023/04/06 06:36:36;;;;;;;;;;;;;;;;;;4924721;29;19922;-90
2023/04/06 06:39:03;;;;;;;;;;;;;;;;;;4925417;29;20022;-92
2023/04/06 06:41:42;;;;;;;;;;;;;;;;;;4941149;29;19969;-96
2023/04/06 06:44:08;;;;;;;;;;;;;;;;;;4925553;29;19922;-95
2023/04/06 06:46:40;;;;;;;;;;;;;;;;;;4924302;29;20408;-93
2023/04/06 06:49:06;;;;;;;;;;;;;;;;;;4924240;29;19976;-92
2023/04/06 06:51:32;;;;;;;;;;;;;;;;;;4924651;29;19933;-96
2023/04/06 06:53:58;;;;;;;;;;;;;;;;;;4924141;29;19930;-93
2023/04/06 06:56:25;;;;;;;;;;;;;;;;;;4924516;29;19922;-96
2023/04/06 06:58:51;;;;;;;;;;;;;;;;;;4923124;29;20230;-93
2023/04/06 07:01:31;;;;;;;;;;;;;;;;;;4938114;29;19949;-92
2023/04/06 07:04:07;;;;;;;;;;;;;;;;;;4923293;29;19923;-92
2023/04/06 07:06:36;;;;;;;;;;;;;;;;;;4938238;29;19927;-93
2023/04/06 07:09:06;;;;;;;;;;;;;;;;;;4939227;28;19926;-93
2023/04/06 07:11:38;;;;;;;;;;;;;;;;;;4939747;29;20389;-92
2023/04/06 07:14:04;;;;;;;;;;;;;;;;;;4923338;29;19922;-92
2023/04/06 07:16:30;;;;;;;;;;;;;;;;;;4923825;29;19938;-93
2023/04/06 07:18:59;;;;;;;;;;;;;;;;;;4923824;29;19923;-93
2023/04/06 07:21:26;;;;;;;;;;;;;;;;;;4923511;29;20224;-93
2023/04/06 07:23:52;;;;;;;;;;;;;;;;;;4923535;29;19981;-93
2023/04/06 07:26:18;;;;;;;;;;;;;;;;;;4923598;29;19926;-94
2023/04/06 07:28:44;;;;;;;;;;;;;;;;;;4923546;29;19973;-93
2023/04/06 07:31:10;;;;;;;;;;;;;;;;;;4939311;29;19922;-93
2023/04/06 07:36:25;;;;;;;;;;;;;;;;;;4914613;29;19973;-93
2023/04/06 07:38:51;;;;;;;;;;;;;;;;;;4923037;29;19934;-93
2023/04/06 07:41:17;;;;;;;;;;;;;;;;;;4919745;29;19926;-93
2023/04/06 07:43:43;;;;;;;;;;;;;;;;;;4920106;29;20274;-92
2023/04/06 07:46:09;;;;;;;;;;;;;;;;;;4919832;29;19923;-94
2023/04/06 07:48:35;;;;;;;;;;;;;;;;;;4919787;29;19937;-91
2023/04/06 07:51:01;;;;;;;;;;;;;;;;;;4934653;29;19929;-93
2023/04/06 07:53:27;;;;;;;;;;;;;;;;;;4914145;29;19923;-92
2023/04/06 07:58:57;;;;;;;;;;;;;;;;;;4936580;29;20125;-95
2023/04/06 08:01:23;;;;;;;;;;;;;;;;;;4921887;29;20017;-94
2023/04/06 08:04:02;;;;;;;;;;;;;;;;;;4939805;29;19929;-93
2023/04/06 08:06:31;;;;;;;;;;;;;;;;;;4922677;29;20282;-93
2023/04/06 08:08:58;;;;;;;;;;;;;;;;;;4936705;29;19927;-92
2023/04/06 08:11:27;;;;;;;;;;;;;;;;;;4923022;29;19929;-94
2023/04/06 08:13:53;;;;;;;;;;;;;;;;;;4922912;29;19930;-93
2023/04/06 08:16:19;;;;;;;;;;;;;;;;;;4922830;29;19922;-94
2023/04/06 08:18:45;;;;;;;;;;;;;;;;;;4922661;29;19977;-96
2023/04/06 08:21:11;;;;;;;;;;;;;;;;;;4923176;29;20294;-94
2023/04/06 08:23:37;;;;;;;;;;;;;;;;;;4926997;29;19923;-92
2023/04/06 08:26:03;;;;;;;;;;;;;;;;;;4927239;29;19930;-95
2023/04/06 08:28:34;;;;;;;;;;;;;;;;;;4942807;29;19927;-95
2023/04/06 08:31:20;;;;;;;;;;;;;;;;;;4959489;29;19921;-95
2023/04/06 08:33:46;;;;;;;;;;;;;;;;;;4926618;29;19922;-93
2023/04/06 08:36:12;;;;;;;;;;;;;;;;;;4927244;29;19922;-94
2023/04/06 08:38:38;;;;;;;;;;;;;;;;;;4927609;29;19965;-95
2023/04/06 08:41:04;;;;;;;;;;;;;;;;;;4926916;29;19926;-95
2023/04/06 08:43:30;;;;;;;;;;;;;;;;;;4927251;29;19923;-94
2023/04/06 08:45:56;;;;;;;;;;;;;;;;;;4926935;29;19928;-95
2023/04/06 08:48:23;;;;;;;;;;;;;;;;;;4927517;29;20021;-95
2023/04/06 08:50:49;;;;;;;;;;;;;;;;;;4927186;29;19938;-95
2023/04/06 08:53:15;;;;;;;;;;;;;;;;;;4927373;29;19922;-94
2023/04/06 08:55:41;;;;;;;;;;;;;;;;;;4925632;29;19926;-95
2023/04/06 08:58:08;;;;;;;;;;;;;;;;;;4923334;29;19942;-93
2023/04/06 09:00:34;;;;;;;;;;;;;;;;;;4923620;29;19969;-94
2023/04/06 09:03:00;;;;;;;;;;;;;;;;;;4923165;29;20381;-94
2023/04/06 09:05:26;;;;;;;;;;;;;;;;;;4923025;29;19930;-95
2023/04/06 09:07:52;;;;;;;;;;;;;;;;;;4936056;29;19930;-94
2023/04/06 09:10:18;;;;;;;;;;;;;;;;;;4926099;29;19954;-96
2023/04/06 09:12:44;;;;;;;;;;;;;;;;;;4922923;29;20026;-95
2023/04/06 09:15:13;;;;;;;;;;;;;;;;;;4923951;29;19927;-95
2023/04/06 09:17:39;;;;;;;;;;;;;;;;;;4924706;29;19929;-96
2023/04/06 09:20:05;;;;;;;;;;;;;;;;;;4922831;29;20430;-95
2023/04/06 09:22:31;;;;;;;;;;;;;;;;;;4923697;29;20014;-94
2023/04/06 09:24:57;;;;;;;;;;;;;;;;;;4939049;29;20363;-96
2023/04/06 09:27:23;;;;;;;;;;;;;;;;;;4923009;29;19923;-95
2023/04/06 09:29:49;;;;;;;;;;;;;;;;;;4922825;29;19914;-95
2023/04/06 09:32:16;;;;;;;;;;;;;;;;;;4922807;29;20041;-95
2023/04/06 09:34:48;;;;;;;;;;;;;;;;;;4922007;29;20357;-96
2023/04/06 09:37:14;;;;;;;;;;;;;;;;;;4922624;29;20030;-96
2023/04/06 09:39:51;;;;;;;;;;;;;;;;;;4922346;29;19923;-93
2023/04/06 09:42:26;;;;;;;;;;;;;;;;;;4938681;29;19931;-95
2023/04/06 09:44:52;;;;;;;;;;;;;;;;;;4923138;29;20419;-94
2023/04/06 09:47:18;;;;;;;;;;;;;;;;;;4921767;29;19974;-94
2023/04/06 09:49:44;;;;;;;;;;;;;;;;;;4922316;29;19965;-96
2023/04/06 09:52:16;;;;;;;;;;;;;;;;;;4940125;29;19923;-95
2023/04/06 09:54:42;;;;;;;;;;;;;;;;;;4925677;29;19922;-92
2023/04/06 09:57:48;;;;;;;;;;;;;;;;;;4938013;29;19942;-95
2023/04/06 10:00:16;;;;;;;;;;;;;;;;;;4922569;29;19965;-92
2023/04/06 10:02:42;;;;;;;;;;;;;;;;;;4923807;29;19927;-90
2023/04/06 10:05:12;;;;;;;;;;;;;;;;;;4938563;29;20005;-95
2023/04/06 10:08:04;;;;;;;;;;;;;;;;;;4938215;29;20438;-94
2023/04/06 10:10:33;;;;;;;;;;;;;;;;;;4937671;29;19970;-93
2023/04/06 10:12:59;;;;;;;;;;;;;;;;;;4921821;29;19927;-95
2023/04/06 10:15:25;;;;;;;;;;;;;;;;;;4923097;29;20410;-94
2023/04/06 10:17:51;;;;;;;;;;;;;;;;;;4921344;29;19927;-94
2023/04/06 10:20:17;;;;;;;;;;;;;;;;;;4921759;29;20310;-93
2023/04/06 10:22:50;;;;;;;;;;;;;;;;;;4921173;29;20475;-93
2023/04/06 10:25:16;;;;;;;;;;;;;;;;;;4920841;29;19922;-93
2023/04/06 10:27:42;;;;;;;;;;;;;;;;;;4920762;29;20018;-93
2023/04/06 10:30:08;;;;;;;;;;;;;;;;;;4921070;29;19962;-94
2023/04/06 10:32:35;;;;;;;;;;;;;;;;;;4920852;29;19974;-94
2023/04/06 10:35:05;;;;;;;;;;;;;;;;;;4938065;29;19923;-94
2023/04/06 10:37:31;;;;;;;;;;;;;;;;;;4920949;29;19946;-93
2023/04/06 10:40:00;;;;;;;;;;;;;;;;;;4920907;29;20367;-94
2023/04/06 10:42:26;;;;;;;;;;;;;;;;;;4923644;29;19977;-94
2023/04/06 10:44:52;;;;;;;;;;;;;;;;;;4923692;28;19934;-94
2023/04/06 10:47:18;;;;;;;;;;;;;;;;;;4924145;29;19922;-95
2023/04/06 10:49:43;;;;;;;;;;;;;;;;;;4924045;29;20001;-94
2023/04/06 10:52:09;;;;;;;;;;;;;;;;;;4924950;29;19922;-95
2023/04/06 10:54:38;;;;;;;;;;;;;;;;;;4929121;29;20400;-95
2023/04/06 10:57:06;;;;;;;;;;;;;;;;;;4923230;29;20329;-93
2023/04/06 10:59:32;;;;;;;;;;;;;;;;;;4923851;29;19950;-93
2023/04/06 11:01:58;;;;;;;;;;;;;;;;;;4923496;29;19922;-93
2023/04/06 11:04:24;;;;;;;;;;;;;;;;;;4924219;29;19923;-93
2023/04/06 11:06:50;;;;;;;;;;;;;;;;;;4923656;29;19995;-93
2023/04/06 11:09:15;;;;;;;;;;;;;;;;;;4924105;29;19973;-93
2023/04/06 11:11:42;;;;;;;;;;;;;;;;;;4923407;29;19934;-93
2023/04/06 11:14:11;;;;;;;;;;;;;;;;;;4939260;29;19922;-93
2023/04/06 11:16:37;;;;;;;;;;;;;;;;;;4922923;29;19933;-93
2023/04/06 11:19:02;;;;;;;;;;;;;;;;;;4922797;29;19982;-93
2023/04/06 11:21:30;;;;;;;;;;;;;;;;;;4923321;29;19929;-94
2023/04/06 11:23:56;;;;;;;;;;;;;;;;;;4923804;29;19911;-94
2023/04/06 11:26:22;;;;;;;;;;;;;;;;;;4923833;29;19933;-94
2023/04/06 11:28:48;;;;;;;;;;;;;;;;;;4923648;29;20009;-95
2023/04/06 11:31:14;;;;;;;;;;;;;;;;;;4923066;29;20366;-95
2023/04/06 11:33:40;;;;;;;;;;;;;;;;;;4924174;29;19923;-95
2023/04/06 11:36:06;;;;;;;;;;;;;;;;;;4923886;29;19938;-94
2023/04/06 11:38:32;;;;;;;;;;;;;;;;;;4923889;29;19930;-96
2023/04/06 11:41:04;;;;;;;;;;;;;;;;;;4927757;29;19927;-96
2023/04/06 11:43:42;;;;;;;;;;;;;;;;;;4923941;29;20321;-96
2023/04/06 11:46:24;;;;;;;;;;;;;;;;;;4941132;29;20013;-94
2023/04/06 11:48:50;;;;;;;;;;;;;;;;;;4923629;29;19976;-94
2023/04/06 11:51:16;;;;;;;;;;;;;;;;;;4923533;29;19922;-95
2023/04/06 11:53:42;;;;;;;;;;;;;;;;;;4924767;29;19923;-94
2023/04/06 11:56:08;;;;;;;;;;;;;;;;;;4922976;29;19984;-96
2023/04/06 11:58:35;;;;;;;;;;;;;;;;;;4940072;29;19946;-93
2023/04/06 12:01:01;;;;;;;;;;;;;;;;;;4924188;29;20017;-95
2023/04/06 12:03:27;;;;;;;;;;;;;;;;;;4923969;29;19923;-94
2023/04/06 13:28:56;;;;;;;;;;;;;;;;;;4921522;29;19927;-94
2023/04/06 13:31:22;;;;;;;;;;;;;;;;;;4921968;29;20161;-94
2023/04/06 13:33:48;;;;;;;;;;;;;;;;;;4905448;29;20059;-93
2023/04/06 13:36:14;;;;;;;;;;;;;;;;;;4903968;29;19911;-93
2023/04/06 13:38:41;;;;;;;;;;;;;;;;;;4888392;29;19970;-93
2023/04/06 13:41:07;;;;;;;;;;;;;;;;;;4888382;29;19923;-93
2023/04/06 13:43:33;;;;;;;;;;;;;;;;;;4887656;29;20352;-93
2023/04/06 13:46:00;;;;;;;;;;;;;;;;;;4887780;29;20355;-95
2023/04/06 13:48:26;;;;;;;;;;;;;;;;;;4888286;29;19927;-95
2023/04/06 13:50:54;;;;;;;;;;;;;;;;;;4888563;29;20435;-95
2023/04/06 13:53:21;;;;;;;;;;;;;;;;;;4892647;29;19923;-96
2023/04/06 13:55:59;;;;;;;;;;;;;;;;;;4888537;29;19970;-92
2023/04/06 13:58:25;;;;;;;;;;;;;;;;;;4903226;29;19950;-93
2023/04/06 14:00:52;;;;;;;;;;;;;;;;;;4887875;29;20360;-93
2023/04/06 14:03:23;;;;;;;;;;;;;;;;;;4887522;29;20364;-96
2023/04/06 14:05:51;;;;;;;;;;;;;;;;;;4903561;29;19934;-94
2023/04/06 14:08:17;;;;;;;;;;;;;;;;;;4887646;29;20403;-96
2023/04/06 14:10:43;;;;;;;;;;;;;;;;;;4889644;29;19927;-95
2023/04/06 14:13:09;;;;;;;;;;;;;;;;;;4888591;29;19963;-94
2023/04/06 14:15:35;;;;;;;;;;;;;;;;;;4887408;29;20367;-96
2023/04/06 14:18:01;;;;;;;;;;;;;;;;;;4888602;29;19927;-94
2023/04/06 14:20:27;;;;;;;;;;;;;;;;;;4886876;29;19971;-94
2023/04/06 14:22:54;;;;;;;;;;;;;;;;;;4886554;29;19923;-94
2023/04/06 14:25:20;;;;;;;;;;;;;;;;;;4886781;29;19930;-93
2023/04/06 14:27:46;;;;;;;;;;;;;;;;;;4887004;29;19927;-94
2023/04/06 14:30:12;;;;;;;;;;;;;;;;;;4886554;29;19974;-94
2023/04/06 14:32:39;;;;;;;;;;;;;;;;;;4887087;29;19923;-95
2023/04/06 14:35:05;;;;;;;;;;;;;;;;;;4886847;29;19971;-95
2023/04/06 14:37:31;;;;;;;;;;;;;;;;;;4886944;29;20001;-93
2023/04/06 14:39:57;;;;;;;;;;;;;;;;;;4886841;29;19934;-93
2023/04/06 14:42:23;;;;;;;;;;;;;;;;;;4886752;29;19927;-93
2023/04/06 14:44:50;;;;;;;;;;;;;;;;;;4886294;29;19923;-93
2023/04/06 14:47:20;;;;;;;;;;;;;;;;;;4887012;29;19923;-93
2023/04/06 14:49:46;;;;;;;;;;;;;;;;;;4886611;29;20010;-93
2023/04/06 14:52:11;;;;;;;;;;;;;;;;;;4886403;29;19985;-91
2023/04/06 14:54:37;;;;;;;;;;;;;;;;;;4886311;29;19930;-93
2023/04/06 14:57:03;;;;;;;;;;;;;;;;;;4886545;29;19923;-94
2023/04/06 14:59:29;;;;;;;;;;;;;;;;;;4886605;29;20295;-95
2023/04/06 15:01:55;;;;;;;;;;;;;;;;;;4886470;29;19923;-95
2023/04/06 15:04:22;;;;;;;;;;;;;;;;;;4886594;29;19930;-93
2023/04/06 15:09:47;;;;;;;;;;;;;;;;;;4937157;29;20433;-93
2023/04/06 15:12:13;;;;;;;;;;;;;;;;;;4904511;29;19923;-94
2023/04/06 15:14:39;;;;;;;;;;;;;;;;;;4920829;29;19930;-93
2023/04/06 15:17:05;;;;;;;;;;;;;;;;;;4886945;29;20067;-93
2023/04/06 15:19:31;;;;;;;;;;;;;;;;;;4885624;29;20303;-93
2023/04/06 15:21:57;;;;;;;;;;;;;;;;;;4886329;29;19923;-92
2023/04/06 15:24:23;;;;;;;;;;;;;;;;;;4885813;29;19923;-92
2023/04/06 15:26:50;;;;;;;;;;;;;;;;;;4888347;29;19969;-93
2023/04/06 15:29:16;;;;;;;;;;;;;;;;;;4901091;29;19928;-93
2023/04/06 15:31:42;;;;;;;;;;;;;;;;;;4885010;29;19929;-91
2023/04/06 15:34:08;;;;;;;;;;;;;;;;;;4885383;29;19922;-91
2023/04/06 15:36:35;;;;;;;;;;;;;;;;;;4886045;29;20033;-91
2023/04/06 15:39:01;;;;;;;;;;;;;;;;;;4885733;29;19934;-91
2023/04/06 15:41:28;;;;;;;;;;;;;;;;;;4886024;29;19924;-96
2023/04/06 15:44:02;;;;;;;;;;;;;;;;;;4910754;29;19950;-95
2023/04/06 15:46:28;;;;;;;;;;;;;;;;;;4887554;29;19924;-96
2023/04/06 15:49:03;;;;;;;;;;;;;;;;;;4887226;29;19927;-95
2023/04/06 15:54:20;;;;;;;;;;;;;;;;;;4893355;29;19929;-95
2023/04/06 15:56:46;;;;;;;;;;;;;;;;;;4886219;29;19927;-94
2023/04/06 15:59:12;;;;;;;;;;;;;;;;;;4885528;29;19923;-93
2023/04/06 16:30:46;;;;;;;;;;;;;;;;;;5121939;23;19927;-96
2023/04/06 17:49:15;;;;;;;;;;;;;;;;;;5867400;23;20603;-96
2023/04/06 17:52:02;;;;;;;;;;;;;;;;;;4865895;29;20022;-94
2023/04/06 18:10:53;;;;;;;;;;;;;;;;;;4938879;29;20214;-95
2023/04/06 18:13:19;;;;;;;;;;;;;;;;;;4905515;29;19969;-95
2023/04/06 18:15:45;;;;;;;;;;;;;;;;;;4899122;29;19930;-95
2023/04/06 18:18:15;;;;;;;;;;;;;;;;;;4888117;29;19934;-96
2023/04/06 18:20:41;;;;;;;;;;;;;;;;;;4887542;29;20014;-94
2023/04/06 18:23:07;;;;;;;;;;;;;;;;;;4886857;29;19974;-95
2023/04/06 18:25:33;;;;;;;;;;;;;;;;;;4887592;29;19923;-96
2023/04/06 18:27:59;;;;;;;;;;;;;;;;;;4888189;29;20291;-96
2023/04/06 18:30:25;;;;;;;;;;;;;;;;;;4887677;29;19927;-95
2023/04/06 18:32:54;;;;;;;;;;;;;;;;;;4887880;29;19931;-95
2023/04/06 18:35:32;;;;;;;;;;;;;;;;;;4888264;29;19923;-96
2023/04/06 18:37:58;;;;;;;;;;;;;;;;;;4902556;29;19938;-95
2023/04/06 18:40:24;;;;;;;;;;;;;;;;;;4888229;29;20398;-96
2023/04/06 18:42:50;;;;;;;;;;;;;;;;;;4889106;29;19923;-95
2023/04/06 18:45:26;;;;;;;;;;;;;;;;;;4891237;29;20379;-96
2023/04/06 18:50:53;;;;;;;;;;;;;;;;;;4919689;29;20021;-95
2023/04/06 18:53:19;;;;;;;;;;;;;;;;;;4887171;29;19973;-95
2023/04/06 18:55:48;;;;;;;;;;;;;;;;;;4887146;29;19930;-96
2023/04/06 18:58:15;;;;;;;;;;;;;;;;;;4887060;29;19930;-95
2023/04/06 19:00:44;;;;;;;;;;;;;;;;;;4887222;29;20022;-95
2023/04/06 19:03:10;;;;;;;;;;;;;;;;;;4887070;29;19979;-96
2023/04/06 19:17:46;;;;;;;;;;;;;;;;;;5606143;23;20438;-93
2023/04/06 19:20:12;;;;;;;;;;;;;;;;;;4904936;29;19995;-94
2023/04/06 19:22:38;;;;;;;;;;;;;;;;;;4906871;29;19923;-95
2023/04/06 19:41:49;;;;;;;;;;;;;;;;;;5614613;23;19927;-96
2023/04/06 19:44:15;;;;;;;;;;;;;;;;;;4904818;29;20335;-96
2023/04/06 19:46:49;;;;;;;;;;;;;;;;;;4889241;29;19945;-96
2023/04/06 19:52:10;;;;;;;;;;;;;;;;;;4889106;29;19923;-96
2023/04/06 19:54:36;;;;;;;;;;;;;;;;;;4885775;29;19934;-96
2023/04/06 19:57:07;;;;;;;;;;;;;;;;;;4885162;29;19923;-96
2023/04/06 19:59:36;;;;;;;;;;;;;;;;;;4886413;29;19923;-96
2023/04/06 20:02:02;;;;;;;;;;;;;;;;;;4888943;29;19923;-96
2023/04/06 20:04:28;;;;;;;;;;;;;;;;;;4886921;29;19923;-96
2023/04/06 20:06:53;;;;;;;;;;;;;;;;;;4896273;29;19971;-90
2023/04/06 20:09:20;;;;;;;;;;;;;;;;;;4902950;29;19926;-91
2023/04/06 20:11:46;;;;;;;;;;;;;;;;;;4903859;29;19923;-93
2023/04/06 20:14:12;;;;;;;;;;;;;;;;;;4903714;29;19929;-93
2023/04/06 20:16:38;;;;;;;;;;;;;;;;;;4907094;29;19923;-92
2023/04/06 20:19:04;;;;;;;;;;;;;;;;;;4909628;29;19929;-92
2023/04/06 20:21:30;;;;;;;;;;;;;;;;;;4925762;29;19927;-95
2023/04/06 20:23:56;;;;;;;;;;;;;;;;;;4910531;29;20009;-94
2023/04/06 20:26:22;;;;;;;;;;;;;;;;;;4909596;29;19926;-94
2023/04/06 20:28:48;;;;;;;;;;;;;;;;;;4910052;29;19927;-95
2023/04/06 20:31:14;;;;;;;;;;;;;;;;;;4910366;29;19923;-94
2023/04/06 20:33:41;;;;;;;;;;;;;;;;;;4909970;29;20426;-94
2023/04/06 20:36:07;;;;;;;;;;;;;;;;;;4909806;29;20303;-93
2023/04/06 20:38:33;;;;;;;;;;;;;;;;;;4909478;29;19927;-93
2023/04/06 20:40:59;;;;;;;;;;;;;;;;;;4909785;29;20128;-92
2023/04/06 20:43:27;;;;;;;;;;;;;;;;;;4910115;29;20151;-94
2023/04/06 20:45:53;;;;;;;;;;;;;;;;;;4909822;29;19926;-92
2023/04/06 20:48:19;;;;;;;;;;;;;;;;;;4909614;29;19930;-93
2023/04/06 20:50:45;;;;;;;;;;;;;;;;;;4909975;29;19923;-93
2023/04/06 20:53:11;;;;;;;;;;;;;;;;;;4909760;29;19923;-93
2023/04/06 20:55:40;;;;;;;;;;;;;;;;;;4926118;29;19927;-94